Terminal Aerodrome Forecast
Issued by NWS Sterling, VA

Current Version | Previous Version | Text Only | Print | Product List | Glossary Off
Versions: 1 2 3 4 5 6 7 8 9 10 11 12 13 14 15 16 17 18 19 20 21 22 23 24 25 26

000
FTUS41 KLWX 161443 AAA
TAFIAD
TAF AMD
KIAD 161443Z 1615/1718 00000KT P6SM OVC009
     FM161800 17004KT P6SM BKN035
     FM162100 11004KT P6SM OVC060
     FM170600 33010G18KT 2SM -SN OVC015
     FM171200 33010G18KT P6SM OVC025
     FM171500 33013G22KT P6SM OVC050=

USA.gov is the U.S. government's official web portal to all federal, state and local government web resources and services.